Time;durP1;ratioP1;P1;durP2;ratioP2;P2;SDS_P1;SDS_P2;PMS_P1;PMS_P2;Temp;Humidity;BMP_temperature;BMP_pressure;BME280_temperature;BME280_humidity;BME280_pressure;Samples;Min_cycle;Max_cycle;Signal;HPM_P1;HPM_P2
2021/12/02 00:00:32;;;;;;;2.77;1.53;;;;;;;8.20;100.00;96883.72;4933867;29;20541;-55
2021/12/02 00:02:57;;;;;;;3.07;1.67;;;;;;;8.22;100.00;96886.97;4932662;29;20508;-56
2021/12/02 00:05:23;;;;;;;2.83;1.57;;;;;;;8.08;100.00;96885.59;4933751;29;20054;-54
2021/12/02 00:07:51;;;;;;;2.17;1.40;;;;;;;8.19;100.00;96887.41;4933240;29;20406;-56
2021/12/02 00:10:17;;;;;;;2.30;1.33;;;;;;;8.21;100.00;96888.00;4933631;29;20095;-54
2021/12/02 00:12:43;;;;;;;2.63;1.50;;;;;;;8.28;100.00;96888.69;4933489;29;20337;-56
2021/12/02 00:15:17;;;;;;;2.60;1.60;;;;;;;8.16;100.00;96893.22;4933442;29;20283;-54
2021/12/02 00:17:52;;;;;;;2.60;1.47;;;;;;;8.29;100.00;96898.28;4933394;29;20262;-54
2021/12/02 00:23:28;;;;;;;2.17;1.20;;;;;;;8.17;100.00;96899.38;4933376;29;20337;-56
2021/12/02 00:25:56;;;;;;;2.10;1.30;;;;;;;8.26;100.00;96903.25;4943116;28;20121;-57
2021/12/02 00:28:25;;;;;;;2.63;1.40;;;;;;;8.19;100.00;96899.94;4973833;28;20758;-56
2021/12/02 00:30:54;;;;;;;2.07;1.40;;;;;;;8.20;100.00;96898.88;4973978;28;20272;-56
2021/12/02 00:33:20;;;;;;;2.30;1.30;;;;;;;8.20;100.00;96901.53;4973942;28;20268;-57
2021/12/02 00:35:46;;;;;;;2.03;1.27;;;;;;;8.22;100.00;96899.44;4972725;28;20272;-55
2021/12/02 00:38:13;;;;;;;2.07;1.20;;;;;;;8.19;100.00;96903.38;4973666;28;20663;-55
2021/12/02 00:40:40;;;;;;;1.80;1.30;;;;;;;8.16;100.00;96908.38;4972739;28;20265;-56
2021/12/02 00:43:05;;;;;;;2.20;1.30;;;;;;;8.18;100.00;96899.13;4972514;28;20758;-55
2021/12/02 00:45:32;;;;;;;2.80;1.30;;;;;;;8.06;100.00;96898.34;4973749;28;20026;-54
2021/12/02 00:47:59;;;;;;;2.37;1.40;;;;;;;8.25;100.00;96905.13;4973526;28;20023;-55
2021/12/02 00:50:25;;;;;;;2.00;1.30;;;;;;;8.16;100.00;96903.06;4973704;28;20272;-56
2021/12/02 00:52:51;;;;;;;3.40;1.40;;;;;;;8.07;100.00;96905.28;4973518;28;20272;-57
2021/12/02 00:55:18;;;;;;;2.07;1.40;;;;;;;8.14;100.00;96907.81;4973665;28;20272;-56
2021/12/02 00:57:44;;;;;;;2.60;1.50;;;;;;;8.18;100.00;96906.31;4973769;28;20796;-53
2021/12/02 01:00:11;;;;;;;2.97;1.40;;;;;;;8.09;100.00;96900.53;4973522;28;20284;-57
2021/12/02 01:02:37;;;;;;;2.57;1.43;;;;;;;8.05;100.00;96901.25;4973449;28;20273;-55
2021/12/02 01:05:04;;;;;;;2.33;1.37;;;;;;;8.03;100.00;96895.34;4973488;28;20283;-54
2021/12/02 01:07:29;;;;;;;2.10;1.10;;;;;;;8.25;100.00;96894.47;4973226;28;20756;-55
2021/12/02 01:09:55;;;;;;;1.97;1.23;;;;;;;8.27;100.00;96902.22;4973383;28;20295;-54
2021/12/02 01:12:20;;;;;;;2.33;1.30;;;;;;;8.29;100.00;96897.47;4973253;28;20472;-56
2021/12/02 01:14:47;;;;;;;2.47;1.43;;;;;;;8.24;100.00;96903.50;4973241;28;20030;-56
2021/12/02 01:17:12;;;;;;;2.17;1.40;;;;;;;8.19;100.00;96900.72;4973111;28;20030;-56
2021/12/02 01:19:38;;;;;;;2.13;1.40;;;;;;;8.11;100.00;96902.94;4973091;28;20279;-56
2021/12/02 01:22:04;;;;;;;3.00;1.50;;;;;;;8.03;100.00;96903.31;4973047;28;20511;-56
2021/12/02 01:24:30;;;;;;;2.57;1.70;;;;;;;7.97;100.00;96899.72;4971818;28;20379;-55
2021/12/02 01:26:57;;;;;;;2.67;1.33;;;;;;;8.03;100.00;96904.13;4972824;28;20022;-54
2021/12/02 01:29:25;;;;;;;1.77;1.10;;;;;;;8.10;100.00;96899.47;4972892;28;20331;-55
2021/12/02 01:31:53;;;;;;;2.47;1.30;;;;;;;8.20;100.00;96893.56;4973169;28;20328;-58
2021/12/02 01:34:25;;;;;;;1.97;1.23;;;;;;;8.09;100.00;96891.72;4973082;28;20480;-56
2021/12/02 01:36:52;;;;;;;2.50;1.33;;;;;;;8.05;100.00;96888.75;4972789;28;20372;-53
2021/12/02 01:39:18;;;;;;;1.53;1.20;;;;;;;8.00;100.00;96888.63;4972633;28;20260;-55
2021/12/02 01:41:45;;;;;;;2.00;1.23;;;;;;;8.00;100.00;96873.50;4972839;28;20334;-56
2021/12/02 01:44:12;;;;;;;2.77;1.30;;;;;;;7.86;100.00;96888.06;4972643;28;20373;-53
2021/12/02 01:46:39;;;;;;;2.43;1.30;;;;;;;7.86;100.00;96882.75;4972616;28;20281;-55
2021/12/02 01:49:05;;;;;;;2.13;1.33;;;;;;;7.75;100.00;96888.09;4971441;28;20292;-56
2021/12/02 01:51:38;;;;;;;2.57;1.40;;;;;;;7.73;100.00;96887.53;4972533;28;20265;-56
2021/12/02 01:54:10;;;;;;;2.55;1.40;;;;;;;7.64;100.00;96884.41;4972578;28;20274;-53
2021/12/02 01:56:46;;;;;;;2.27;1.33;;;;;;;7.64;100.00;96882.56;4972776;28;20023;-55
2021/12/02 01:59:23;;;;;;;3.23;1.60;;;;;;;7.63;100.00;96890.75;4972475;28;20267;-56
2021/12/02 02:01:52;;;;;;;2.30;1.30;;;;;;;7.59;100.00;96887.78;4971371;28;20640;-54
2021/12/02 02:04:19;;;;;;;3.33;1.50;;;;;;;7.76;100.00;96884.41;4972545;28;20820;-54
2021/12/02 02:06:56;;;;;;;3.10;1.60;;;;;;;7.84;100.00;96887.53;4972327;28;20350;-57
2021/12/02 02:09:24;;;;;;;1.83;1.40;;;;;;;7.77;100.00;96889.47;4972653;28;20399;-56
2021/12/02 02:11:49;;;;;;;1.73;1.17;;;;;;;7.90;100.00;96881.25;4972549;28;20269;-55
2021/12/02 02:14:15;;;;;;;1.77;1.10;;;;;;;7.89;100.00;96879.63;4972383;28;20318;-55
2021/12/02 02:16:41;;;;;;;2.30;1.30;;;;;;;7.91;100.00;96888.19;4972454;28;20027;-56
2021/12/02 02:19:11;;;;;;;1.77;1.10;;;;;;;7.92;100.00;96883.69;4972589;28;20023;-56
2021/12/02 02:21:36;;;;;;;1.63;1.10;;;;;;;7.89;100.00;96892.13;4971200;28;20279;-54
2021/12/02 02:24:03;;;;;;;1.97;1.20;;;;;;;7.88;100.00;96893.16;4972431;28;20622;-55
2021/12/02 02:26:34;;;;;;;2.10;1.13;;;;;;;7.85;100.00;96886.47;4975012;28;20034;-56
2021/12/02 02:29:01;;;;;;;1.90;1.20;;;;;;;7.91;100.00;96887.38;4976146;28;20276;-55
2021/12/02 02:31:28;;;;;;;2.00;1.20;;;;;;;7.86;100.00;96892.59;4976320;28;20272;-55
2021/12/02 02:33:54;;;;;;;2.40;1.40;;;;;;;7.89;100.00;96884.16;4976052;28;20788;-54
2021/12/02 02:36:22;;;;;;;2.20;1.07;;;;;;;7.91;100.00;96880.22;4976155;28;20276;-57
2021/12/02 02:38:56;;;;;;;3.10;1.30;;;;;;;7.80;100.00;96866.94;4974713;28;20102;-55
2021/12/02 02:41:24;;;;;;;2.28;1.15;;;;;;;7.75;100.00;96880.13;4976257;28;20268;-55
2021/12/02 02:43:53;;;;;;;2.30;1.20;;;;;;;7.66;100.00;96881.53;4976010;28;20023;-50
2021/12/02 02:46:44;;;;;;;2.33;1.20;;;;;;;7.63;100.00;96866.84;4975873;28;20363;-57
2021/12/02 02:49:12;;;;;;;2.47;1.30;;;;;;;7.61;100.00;96877.69;4975691;28;20673;-57
2021/12/02 02:51:39;;;;;;;1.90;1.20;;;;;;;7.61;100.00;96879.56;4975862;28;20653;-51
2021/12/02 02:54:08;;;;;;;1.97;1.07;;;;;;;7.57;100.00;96876.56;4975660;28;20347;-56
2021/12/02 02:56:41;;;;;;;2.13;1.10;;;;;;;7.58;100.00;96880.84;4975738;28;20756;-55
2021/12/02 02:59:18;;;;;;;2.87;1.40;;;;;;;7.56;100.00;96877.59;4975717;28;20271;-56
2021/12/02 03:02:04;;;;;;;1.00;0.80;;;;;;;7.52;100.00;96883.59;4975561;28;20279;-57
2021/12/02 03:04:37;;;;;;;2.03;1.40;;;;;;;7.56;100.00;96877.59;4974556;28;20272;-55
2021/12/02 03:10:12;;;;;;;1.63;1.03;;;;;;;7.52;100.00;96878.28;4965974;28;20284;-57
2021/12/02 03:13:11;;;;;;;1.63;1.10;;;;;;;7.53;100.00;96871.94;4975404;28;20271;-57
2021/12/02 03:17:50;;;;;;;1.60;1.00;;;;;;;7.55;100.00;96883.16;4975324;28;20257;-57
2021/12/02 03:20:15;;;;;;;1.73;1.10;;;;;;;7.67;100.00;96878.63;4975287;28;20526;-57
2021/12/02 03:22:43;;;;;;;2.33;1.10;;;;;;;7.63;100.00;96880.94;4975307;28;20027;-51
2021/12/02 03:25:09;;;;;;;1.80;1.10;;;;;;;7.60;100.00;96883.28;4975045;28;20101;-57
2021/12/02 03:27:34;;;;;;;1.80;1.10;;;;;;;7.65;100.00;96883.38;4975244;28;20300;-55
2021/12/02 03:30:01;;;;;;;1.83;1.20;;;;;;;7.64;100.00;96887.06;4975062;28;20297;-56
2021/12/02 03:32:26;;;;;;;1.60;1.00;;;;;;;7.61;100.00;96877.69;4975200;28;20038;-53
2021/12/02 03:34:52;;;;;;;1.23;0.90;;;;;;;7.72;100.00;96877.94;4975104;28;20621;-55
2021/12/02 03:37:18;;;;;;;1.70;1.03;;;;;;;7.76;100.00;96879.88;4974924;28;20026;-56
2021/12/02 03:39:44;;;;;;;2.60;1.10;;;;;;;7.65;100.00;96875.41;4975088;28;20106;-57
2021/12/02 03:42:10;;;;;;;1.97;1.10;;;;;;;7.61;100.00;96880.34;4973769;28;20353;-57
2021/12/02 03:44:36;;;;;;;1.40;0.90;;;;;;;7.53;100.00;96879.91;4975027;28;20022;-56
2021/12/02 03:47:02;;;;;;;1.53;0.90;;;;;;;7.57;100.00;96889.03;4974747;28;20030;-55
2021/12/02 03:49:29;;;;;;;1.23;0.80;;;;;;;7.56;100.00;96884.78;4975130;28;20274;-56
2021/12/02 03:51:54;;;;;;;2.77;1.10;;;;;;;7.55;100.00;96886.63;4974795;28;20326;-54
2021/12/02 03:54:20;;;;;;;1.30;0.90;;;;;;;7.66;100.00;96884.19;4974796;28;20268;-54
2021/12/02 03:56:45;;;;;;;2.07;1.00;;;;;;;7.73;100.00;96890.19;4974716;28;20027;-56
2021/12/02 03:59:12;;;;;;;2.23;1.00;;;;;;;7.76;100.00;96882.53;4974576;28;20105;-52
2021/12/02 04:01:38;;;;;;;1.43;0.87;;;;;;;7.76;100.00;96885.19;4974658;28;20027;-55
2021/12/02 04:04:04;;;;;;;2.07;1.00;;;;;;;7.78;100.00;96887.63;4974443;28;20261;-52
2021/12/02 04:06:29;;;;;;;1.10;0.90;;;;;;;7.70;100.00;96880.84;4974338;28;20085;-54
2021/12/02 04:09:11;;;;;;;1.93;1.00;;;;;;;7.73;100.00;96890.19;4974248;28;20085;-54
2021/12/02 04:16:53;;;;;;;2.60;1.00;;;;;;;7.61;100.00;96904.28;4974223;28;20761;-55
2021/12/02 04:19:20;;;;;;;1.80;0.90;;;;;;;7.59;100.00;96900.25;4974424;28;20253;-56
2021/12/02 04:21:46;;;;;;;2.13;1.10;;;;;;;7.54;100.00;96894.81;4974142;28;20030;-57
2021/12/02 04:24:11;;;;;;;1.73;0.90;;;;;;;7.51;100.00;96895.28;4974066;28;20781;-55
2021/12/02 04:26:39;;;;;;;1.80;1.00;;;;;;;7.37;100.00;96899.22;4974044;28;20058;-56
2021/12/02 04:29:05;;;;;;;1.33;0.97;;;;;;;7.35;100.00;96902.09;4974205;28;20029;-57
2021/12/02 04:31:30;;;;;;;1.63;1.00;;;;;;;7.14;100.00;96897.34;4973953;28;20272;-56
2021/12/02 04:33:55;;;;;;;1.97;1.13;;;;;;;7.08;100.00;96896.41;4974017;28;20038;-56
2021/12/02 04:36:21;;;;;;;1.83;1.13;;;;;;;7.07;100.00;96901.94;4973846;28;20042;-57
2021/12/02 04:38:46;;;;;;;3.33;1.10;;;;;;;6.96;100.00;96900.88;4973786;28;20103;-57
2021/12/02 04:41:13;;;;;;;2.73;1.20;;;;;;;6.88;100.00;96890.59;4973734;28;20045;-56
2021/12/02 04:43:39;;;;;;;2.37;1.23;;;;;;;6.79;100.00;96900.75;4973995;28;20109;-55
2021/12/02 04:46:04;;;;;;;3.07;1.20;;;;;;;6.69;100.00;96897.81;4973663;28;20841;-56
2021/12/02 04:48:30;;;;;;;3.37;1.10;;;;;;;6.66;100.00;96898.28;4973151;28;20495;-53
2021/12/02 04:50:55;;;;;;;2.00;1.30;;;;;;;6.67;100.00;96899.91;4973661;28;20424;-57
2021/12/02 04:53:21;;;;;;;2.63;1.50;;;;;;;6.71;100.00;96908.19;4973630;28;20114;-55
2021/12/02 04:55:46;;;;;;;2.40;1.03;;;;;;;6.77;100.00;96899.34;4973690;28;20050;-55
2021/12/02 04:58:12;;;;;;;2.60;1.30;;;;;;;6.81;100.00;96896.00;4973429;28;20088;-56
2021/12/02 05:00:37;;;;;;;3.33;1.13;;;;;;;6.93;100.00;96887.25;4973547;28;20552;-54
2021/12/02 05:03:03;;;;;;;2.53;1.27;;;;;;;7.02;100.00;96896.53;4973539;28;20488;-55
2021/12/02 05:05:29;;;;;;;1.60;1.20;;;;;;;6.90;100.00;96894.66;4973472;28;20491;-55
2021/12/02 05:07:55;;;;;;;2.30;1.30;;;;;;;6.95;100.00;96885.19;4973267;28;20075;-55
2021/12/02 05:10:22;;;;;;;2.07;1.40;;;;;;;6.95;100.00;96891.31;4973338;28;20034;-56
2021/12/02 05:12:49;;;;;;;2.23;1.40;;;;;;;6.94;100.00;96887.03;4972212;28;20269;-56
2021/12/02 05:15:14;;;;;;;2.63;1.70;;;;;;;6.94;100.00;96895.00;4973315;28;20265;-57
2021/12/02 05:17:40;;;;;;;1.60;1.07;;;;;;;7.07;100.00;96894.78;4973207;28;20260;-57
2021/12/02 05:20:06;;;;;;;3.03;1.40;;;;;;;7.18;100.00;96891.34;4973080;28;20035;-57
2021/12/02 05:22:33;;;;;;;2.13;1.20;;;;;;;7.13;100.00;96891.22;4973400;28;20030;-56
2021/12/02 05:24:59;;;;;;;1.63;1.10;;;;;;;7.01;100.00;96894.91;4973258;28;20764;-55
2021/12/02 05:27:24;;;;;;;3.17;1.33;;;;;;;7.15;100.00;96888.34;4972811;28;20280;-55
2021/12/02 05:29:50;;;;;;;2.17;1.27;;;;;;;7.09;100.00;96889.25;4973097;28;20034;-57
2021/12/02 05:32:16;;;;;;;2.60;1.20;;;;;;;7.13;100.00;96893.06;4972897;28;20063;-56
2021/12/02 05:34:41;;;;;;;4.33;1.50;;;;;;;7.22;100.00;96892.50;4972877;28;20034;-56
2021/12/02 05:37:07;;;;;;;1.77;1.17;;;;;;;7.19;100.00;96894.81;4972693;28;20070;-54
2021/12/02 05:39:32;;;;;;;1.83;1.20;;;;;;;7.32;100.00;96899.91;4972760;28;20026;-55
2021/12/02 05:41:58;;;;;;;1.70;1.20;;;;;;;7.39;100.00;96895.28;4972749;28;20097;-55
2021/12/02 05:44:24;;;;;;;2.00;1.17;;;;;;;7.38;100.00;96891.03;4972648;28;20034;-57
2021/12/02 05:46:51;;;;;;;2.67;1.43;;;;;;;7.36;100.00;96894.94;4972640;28;20018;-57
2021/12/02 05:49:17;;;;;;;2.60;1.20;;;;;;;7.46;100.00;96903.16;4972482;28;20027;-56
2021/12/02 05:51:44;;;;;;;2.37;1.20;;;;;;;7.44;100.00;96903.38;4972645;28;20642;-55
2021/12/02 05:54:10;;;;;;;2.43;1.23;;;;;;;7.31;100.00;96919.53;4972480;28;20264;-55
2021/12/02 05:56:35;;;;;;;2.20;1.20;;;;;;;7.23;100.00;96922.53;4972482;28;20269;-55
2021/12/02 05:59:01;;;;;;;2.37;1.30;;;;;;;7.23;100.00;96917.22;4972518;28;20528;-55
2021/12/02 06:01:27;;;;;;;2.80;1.50;;;;;;;7.04;100.00;96927.09;4971597;28;20484;-56
2021/12/02 06:03:52;;;;;;;2.47;1.30;;;;;;;6.90;100.00;96917.75;4972463;28;20503;-54
2021/12/02 06:06:18;;;;;;;3.07;1.60;;;;;;;6.87;100.00;96920.84;4972110;28;20046;-56
2021/12/02 06:08:44;;;;;;;2.43;1.50;;;;;;;7.04;100.00;96918.34;4972283;28;20038;-56
2021/12/02 06:11:10;;;;;;;4.07;1.63;;;;;;;7.11;100.00;96917.19;4972315;28;20273;-52
2021/12/02 06:13:37;;;;;;;3.70;1.60;;;;;;;7.06;100.00;96930.34;4970714;28;20376;-54
2021/12/02 06:16:03;;;;;;;4.37;1.60;;;;;;;6.76;100.00;96918.97;4972170;28;20085;-54
2021/12/02 06:18:28;;;;;;;5.73;2.97;;;;;;;6.93;100.00;96921.75;4972567;28;20260;-57
2021/12/02 06:20:54;;;;;;;2.07;1.40;;;;;;;6.61;100.00;96923.84;4972473;28;20682;-56
2021/12/02 06:23:23;;;;;;;2.60;1.50;;;;;;;6.77;100.00;96925.88;4972307;28;20054;-56
2021/12/02 06:25:49;;;;;;;2.40;1.40;;;;;;;6.53;100.00;96925.81;4972479;28;20042;-55
2021/12/02 06:28:16;;;;;;;2.23;1.30;;;;;;;6.45;100.00;96930.63;4972277;28;20288;-57
2021/12/02 06:30:42;;;;;;;2.50;1.43;;;;;;;6.42;100.00;96928.41;4972387;28;20260;-54
2021/12/02 06:33:08;;;;;;;3.33;1.70;;;;;;;6.40;100.00;96925.16;4972089;28;20284;-55
2021/12/02 06:35:34;;;;;;;2.50;1.53;;;;;;;6.38;100.00;96932.53;4967141;28;20745;-53
2021/12/02 06:37:59;;;;;;;2.37;1.43;;;;;;;6.28;100.00;96942.84;4970709;28;20046;-57
2021/12/02 06:40:25;;;;;;;2.97;1.60;;;;;;;6.25;100.00;96941.44;4971213;28;20038;-53
2021/12/02 06:42:51;;;;;;;3.43;1.80;;;;;;;6.33;100.00;96935.06;4972091;28;20030;-51
2021/12/02 06:45:17;;;;;;;4.10;1.80;;;;;;;6.37;100.00;96941.50;4971132;28;20273;-55
2021/12/02 06:47:43;;;;;;;3.17;1.60;;;;;;;6.29;100.00;96953.25;4972062;28;20044;-58
2021/12/02 06:50:13;;;;;;;15.93;8.77;;;;;;;6.41;100.00;96946.16;4972099;28;20078;-54
2021/12/02 06:52:39;;;;;;;7.40;4.23;;;;;;;6.44;100.00;96966.94;4972010;28;20264;-53
2021/12/02 06:55:06;;;;;;;3.40;1.97;;;;;;;6.29;100.00;96961.19;4972084;28;20269;-55
2021/12/02 06:57:31;;;;;;;3.40;1.80;;;;;;;6.48;100.00;96968.09;4972193;28;20343;-59
2021/12/02 07:00:01;;;;;;;2.73;1.80;;;;;;;6.53;100.00;96970.09;4970686;28;20363;-59
2021/12/02 07:02:26;;;;;;;3.13;1.73;;;;;;;6.58;100.00;96964.91;4972099;28;20480;-58
2021/12/02 07:04:53;;;;;;;3.47;1.90;;;;;;;6.58;100.00;96972.88;4972010;28;20327;-58
2021/12/02 07:07:19;;;;;;;4.73;1.87;;;;;;;6.54;100.00;96971.72;4966449;28;20046;-59
2021/12/02 07:09:44;;;;;;;2.90;1.70;;;;;;;6.54;100.00;96963.75;4971400;28;20277;-59
2021/12/02 07:12:10;;;;;;;3.47;1.87;;;;;;;6.60;100.00;96977.97;4972353;28;20057;-59
2021/12/02 07:14:37;;;;;;;2.77;1.87;;;;;;;6.62;100.00;96976.72;4972685;28;20145;-59
2021/12/02 07:17:03;;;;;;;4.87;1.83;;;;;;;6.53;100.00;96972.75;4974430;28;20388;-59
2021/12/02 07:19:28;;;;;;;5.83;2.00;;;;;;;6.43;100.00;96975.94;4971791;28;20042;-59
2021/12/02 07:21:54;;;;;;;5.17;1.80;;;;;;;6.56;100.00;96982.13;4973798;28;20038;-58
2021/12/02 07:24:19;;;;;;;3.37;1.60;;;;;;;6.13;100.00;96990.94;4974808;28;20038;-60
2021/12/02 07:26:46;;;;;;;3.43;2.10;;;;;;;6.27;100.00;96991.63;4972480;28;20555;-53
2021/12/02 07:29:14;;;;;;;4.00;2.07;;;;;;;6.37;100.00;97003.34;4974499;28;20357;-54
2021/12/02 07:31:40;;;;;;;3.00;1.57;;;;;;;6.40;100.00;96997.59;4974824;28;20304;-57
2021/12/02 07:34:06;;;;;;;3.13;1.90;;;;;;;6.44;100.00;96998.78;4973741;28;20339;-55
2021/12/02 07:36:33;;;;;;;3.50;2.00;;;;;;;6.57;100.00;97000.47;4974665;28;20031;-56
2021/12/02 07:39:08;;;;;;;3.87;1.73;;;;;;;6.59;100.00;96998.38;4974101;28;20296;-54
2021/12/02 07:41:35;;;;;;;3.10;1.70;;;;;;;6.65;100.00;96994.84;4974683;28;20268;-60
2021/12/02 07:44:01;;;;;;;2.73;1.67;;;;;;;6.68;100.00;97005.03;4974703;28;20670;-56
2021/12/02 07:46:26;;;;;;;2.70;1.53;;;;;;;6.70;100.00;97010.09;4974161;28;20363;-55
2021/12/02 07:48:54;;;;;;;3.70;1.80;;;;;;;6.75;100.00;97003.09;4973944;28;20033;-55
2021/12/02 07:51:20;;;;;;;3.50;1.70;;;;;;;6.60;100.00;97005.31;4973604;28;20029;-53
2021/12/02 07:53:48;;;;;;;3.63;2.03;;;;;;;6.65;100.00;97010.78;4973198;28;20318;-53
2021/12/02 07:56:18;;;;;;;3.83;1.60;;;;;;;6.70;100.00;97010.91;4974538;28;20271;-52
2021/12/02 07:58:45;;;;;;;3.80;1.70;;;;;;;6.86;100.00;97010.28;4973196;28;20268;-54
2021/12/02 08:01:11;;;;;;;3.57;1.50;;;;;;;6.49;100.00;97019.31;4974331;28;20407;-55
2021/12/02 08:03:43;;;;;;;3.07;1.70;;;;;;;6.56;100.00;97022.72;4974539;28;20271;-54
2021/12/02 08:06:11;;;;;;;4.73;1.60;;;;;;;6.56;100.00;97027.22;4974239;28;20261;-56
2021/12/02 08:08:39;;;;;;;3.33;1.50;;;;;;;6.62;100.00;97031.63;4989289;28;20674;-54
2021/12/02 08:11:06;;;;;;;2.30;1.50;;;;;;;6.76;100.00;97028.59;4973720;28;20269;-57
2021/12/02 08:13:32;;;;;;;3.63;1.50;;;;;;;6.39;100.00;97033.09;4974310;28;20273;-55
2021/12/02 08:15:58;;;;;;;4.10;1.57;;;;;;;6.42;100.00;97043.28;4974415;28;20276;-52
2021/12/02 08:18:23;;;;;;;4.03;1.60;;;;;;;6.65;100.00;97039.97;4974246;28;20026;-56
2021/12/02 08:20:49;;;;;;;4.13;1.80;;;;;;;6.77;100.00;97048.00;4974124;28;20052;-58
2021/12/02 08:23:14;;;;;;;3.37;1.50;;;;;;;6.65;100.00;97057.72;4973318;28;20503;-54
2021/12/02 08:25:40;;;;;;;11.23;2.07;;;;;;;6.89;100.00;97048.84;4974240;28;20147;-54
2021/12/02 08:28:05;;;;;;;3.13;1.30;;;;;;;6.72;100.00;97055.78;4974020;28;20023;-54
2021/12/02 08:30:33;;;;;;;2.67;1.37;;;;;;;6.65;100.00;97061.19;4973865;28;20089;-54
2021/12/02 08:33:01;;;;;;;4.07;1.57;;;;;;;6.60;100.00;97060.22;4974217;28;20054;-49
2021/12/02 08:35:29;;;;;;;4.80;1.40;;;;;;;6.90;100.00;97045.97;4973941;28;20748;-53
2021/12/02 08:38:00;;;;;;;3.73;1.37;;;;;;;6.82;100.00;97042.81;4973907;28;20273;-53
2021/12/02 08:40:33;;;;;;;8.77;2.00;;;;;;;7.04;100.00;97051.13;4973486;28;20268;-55
2021/12/02 08:43:04;;;;;;;2.70;1.45;;;;;;;6.63;100.00;97054.47;4973543;28;20261;-56
2021/12/02 08:45:30;;;;;;;3.60;1.33;;;;;;;6.69;100.00;97056.25;4973652;28;20030;-54
2021/12/02 08:47:57;;;;;;;4.53;1.50;;;;;;;6.93;100.00;97060.63;4973546;28;20414;-57
2021/12/02 08:50:23;;;;;;;2.37;1.30;;;;;;;6.83;100.00;97068.31;4973425;28;20356;-58
2021/12/02 08:52:50;;;;;;;2.43;1.40;;;;;;;6.92;100.00;97053.72;4973513;28;20261;-56
2021/12/02 08:55:17;;;;;;;4.47;1.30;;;;;;;6.90;100.00;97059.25;4973419;28;20037;-59
2021/12/02 08:57:44;;;;;;;2.83;1.50;;;;;;;7.11;100.00;97070.44;4973411;28;20272;-61
2021/12/02 09:00:12;;;;;;;4.40;1.70;;;;;;;6.73;100.00;97066.19;4973550;28;20704;-52
2021/12/02 09:02:38;;;;;;;4.07;1.43;;;;;;;6.93;100.00;97059.81;4973078;28;20315;-52
2021/12/02 09:05:04;;;;;;;4.00;1.60;;;;;;;7.32;100.00;97063.81;4973183;28;20268;-55
2021/12/02 09:07:30;;;;;;;4.03;1.83;;;;;;;7.25;100.00;97061.25;4972927;28;20047;-55
2021/12/02 09:09:56;;;;;;;3.67;1.70;;;;;;;7.43;100.00;97066.50;4972003;28;20614;-56
2021/12/02 09:12:22;;;;;;;2.83;1.50;;;;;;;7.34;100.00;97062.53;4970581;28;20275;-55
2021/12/02 09:14:48;;;;;;;5.47;1.80;;;;;;;7.46;100.00;97059.91;4972731;28;20054;-56
2021/12/02 09:17:14;;;;;;;2.70;1.47;;;;;;;7.46;100.00;97063.38;4972928;28;20292;-56
2021/12/02 09:19:39;;;;;;;2.73;1.50;;;;;;;7.41;100.00;97062.44;4973073;28;20038;-59
2021/12/02 09:22:05;;;;;;;5.03;1.60;;;;;;;7.50;100.00;97074.38;4971618;28;20496;-59
2021/12/02 09:24:30;;;;;;;3.60;1.50;;;;;;;7.65;100.00;97069.44;4972415;28;20499;-58
2021/12/02 09:26:56;;;;;;;3.23;1.50;;;;;;;7.36;100.00;97073.75;4972628;28;20031;-59
2021/12/02 09:29:22;;;;;;;2.57;1.50;;;;;;;7.60;100.00;97075.44;4972725;28;20031;-59
2021/12/02 09:31:49;;;;;;;2.87;1.40;;;;;;;7.80;100.00;97074.31;4972766;28;20498;-58
2021/12/02 09:34:15;;;;;;;5.17;2.60;;;;;;;7.77;100.00;97072.13;4972310;28;20275;-55
2021/12/02 09:36:41;;;;;;;6.23;3.10;;;;;;;7.76;100.00;97070.50;4972534;28;20745;-58
2021/12/02 09:39:08;;;;;;;5.17;1.80;;;;;;;7.51;100.00;97066.16;4972715;28;20448;-59
2021/12/02 09:41:35;;;;;;;3.73;1.80;;;;;;;7.69;100.00;97067.13;4972507;28;20625;-59
2021/12/02 09:44:01;;;;;;;4.33;1.80;;;;;;;7.63;100.00;97061.69;4971102;28;20343;-57
2021/12/02 09:46:26;;;;;;;4.80;1.60;;;;;;;7.44;100.00;97057.50;4971976;28;20619;-55
2021/12/02 09:48:53;;;;;;;3.63;1.50;;;;;;;7.71;100.00;97052.59;4972315;28;20031;-56
2021/12/02 09:51:25;;;;;;;3.67;1.57;;;;;;;7.32;100.00;97047.84;4971322;28;20042;-58
2021/12/02 09:54:03;;;;;;;6.80;1.80;;;;;;;7.56;100.00;97063.66;4972474;28;20292;-57
2021/12/02 09:56:32;;;;;;;3.23;1.53;;;;;;;7.03;100.00;97050.31;4971339;28;20344;-57
2021/12/02 09:59:09;;;;;;;6.57;1.50;;;;;;;7.73;100.00;97044.38;4972425;28;20364;-58
2021/12/02 10:01:45;;;;;;;5.30;2.50;;;;;;;7.75;100.00;97047.59;4972373;28;20725;-57
2021/12/02 10:04:12;;;;;;;3.10;1.43;;;;;;;7.14;100.00;97048.75;4972239;28;20630;-56
2021/12/02 10:06:40;;;;;;;3.70;1.77;;;;;;;7.09;100.00;97045.94;4971888;28;20281;-60
2021/12/02 10:09:37;;;;;;;3.93;1.60;;;;;;;7.09;100.00;97045.94;4972165;28;20285;-57
2021/12/02 10:12:11;;;;;;;3.53;1.70;;;;;;;7.50;100.00;97042.50;4972356;28;20741;-57
2021/12/02 10:14:43;;;;;;;4.67;1.50;;;;;;;7.57;100.00;97044.00;4972165;28;20347;-59
2021/12/02 10:17:13;;;;;;;3.70;1.50;;;;;;;7.22;100.00;97049.22;4971721;28;20276;-58
2021/12/02 10:23:19;;;;;;;3.63;1.40;;;;;;;7.80;100.00;97050.41;4966767;28;20327;-57
2021/12/02 10:25:58;;;;;;;3.70;1.43;;;;;;;7.56;100.00;97054.84;4959848;28;20288;-59
2021/12/02 10:28:25;;;;;;;3.13;1.50;;;;;;;7.52;100.00;97043.88;4969721;28;20289;-59
2021/12/02 10:31:00;;;;;;;4.20;1.70;;;;;;;7.11;100.00;97052.66;4979036;28;20271;-59
2021/12/02 10:33:49;;;;;;;4.10;1.50;;;;;;;7.59;100.00;97043.78;4974881;28;20716;-59
2021/12/02 10:36:57;;;;;;;3.13;1.40;;;;;;;7.69;100.00;97038.72;4972147;28;20275;-59
2021/12/02 10:39:25;;;;;;;2.73;1.33;;;;;;;7.38;100.00;97046.97;4961217;28;20303;-59
2021/12/02 10:42:06;;;;;;;3.63;1.60;;;;;;;7.21;100.00;97044.13;4970545;28;20356;-60
2021/12/02 10:44:36;;;;;;;4.47;1.57;;;;;;;7.17;100.00;97038.44;4976758;28;20267;-61
2021/12/02 10:47:07;;;;;;;5.77;1.70;;;;;;;7.14;100.00;97027.50;4973193;28;20268;-48
2021/12/02 10:49:54;;;;;;;5.37;1.90;;;;;;;7.46;100.00;97022.72;4975394;28;20281;-57
2021/12/02 10:52:22;;;;;;;5.40;1.90;;;;;;;7.37;100.00;97022.25;4975479;28;20269;-60
2021/12/02 10:54:52;;;;;;;2.90;1.50;;;;;;;7.52;100.00;97024.44;4974430;28;20249;-57
2021/12/02 10:57:21;;;;;;;3.37;1.50;;;;;;;7.56;100.00;97025.63;4973965;28;20744;-59
2021/12/02 10:59:49;;;;;;;3.60;1.50;;;;;;;7.60;100.00;97022.28;4975846;28;20288;-59
2021/12/02 11:02:20;;;;;;;3.03;1.47;;;;;;;7.30;100.00;97018.84;4976700;28;20282;-57
2021/12/02 11:04:54;;;;;;;5.33;1.73;;;;;;;7.73;100.00;97010.59;4976810;28;20288;-57
2021/12/02 11:07:25;;;;;;;4.93;1.40;;;;;;;7.53;100.00;97012.78;4974951;28;20368;-58
2021/12/02 11:09:52;;;;;;;4.93;1.70;;;;;;;7.43;100.00;97012.53;4975240;28;20269;-57
2021/12/02 11:12:29;;;;;;;4.07;1.70;;;;;;;7.63;100.00;97013.84;4974882;28;20307;-58
2021/12/02 11:15:08;;;;;;;3.87;1.47;;;;;;;7.80;100.00;97015.84;4974939;28;20268;-57
2021/12/02 11:17:43;;;;;;;3.83;1.37;;;;;;;7.81;100.00;97017.44;4975209;28;20260;-56
2021/12/02 11:20:21;;;;;;;4.33;1.57;;;;;;;7.54;100.00;97023.19;4972486;28;20367;-56
2021/12/02 11:22:48;;;;;;;3.93;1.40;;;;;;;7.66;100.00;97017.91;4974788;28;20272;-57
2021/12/02 11:25:14;;;;;;;5.03;1.53;;;;;;;7.49;100.00;97019.63;4975056;28;20264;-58
2021/12/02 11:27:44;;;;;;;4.67;1.43;;;;;;;7.49;100.00;97017.78;4957525;28;20273;-59
2021/12/02 11:30:17;;;;;;;4.77;1.60;;;;;;;7.46;100.00;97014.75;4976086;28;20287;-58
2021/12/02 11:32:49;;;;;;;5.45;1.77;;;;;;;7.21;100.00;97007.75;4974748;28;20331;-58
2021/12/02 11:35:19;;;;;;;4.73;1.50;;;;;;;7.38;100.00;97007.94;4984697;28;20477;-58
2021/12/02 11:37:48;;;;;;;4.00;1.60;;;;;;;7.05;100.00;97007.56;4974735;28;20359;-55
2021/12/02 11:40:17;;;;;;;3.07;1.30;;;;;;;7.37;100.00;97003.66;4974226;28;20265;-57
2021/12/02 11:42:45;;;;;;;6.60;1.57;;;;;;;7.51;100.00;96999.72;4974413;28;20295;-57
2021/12/02 11:45:12;;;;;;;4.07;1.50;;;;;;;7.33;100.00;97001.66;4974772;28;20265;-57
2021/12/02 11:47:39;;;;;;;2.73;1.40;;;;;;;7.23;100.00;96994.25;4974636;28;20291;-57
2021/12/02 11:50:07;;;;;;;3.10;1.23;;;;;;;7.54;100.00;96998.47;4974079;28;20272;-58
2021/12/02 11:52:35;;;;;;;3.10;1.40;;;;;;;7.43;100.00;96993.94;4974160;28;20264;-58
2021/12/02 11:55:04;;;;;;;3.50;1.30;;;;;;;7.22;100.00;96987.31;4973351;28;20275;-58